createdAt,value
2022-12-11T00:44:03.359Z,100109.63
2022-12-11T00:49:06.962Z,100108.03
2022-12-11T00:59:43.085Z,100113.47
2022-12-11T01:05:09.209Z,100089.38
2022-12-11T01:10:22.107Z,100099.81
2022-12-11T01:15:29.627Z,100092.09
2022-12-11T01:20:36.468Z,100102.84
2022-12-11T01:25:48.176Z,100098.06
2022-12-11T01:30:53.496Z,100090.16
2022-12-11T01:35:57.139Z,100092.75
2022-12-11T01:41:15.363Z,100100.97
2022-12-11T01:46:20.707Z,100096.28
2022-12-11T01:51:25.419Z,100092.38
2022-12-11T01:56:31.872Z,100093.00
2022-12-11T02:01:40.722Z,100096.53
2022-12-11T02:06:56.761Z,100083.34
2022-12-11T02:12:04.708Z,100099.34
2022-12-11T02:17:18.129Z,100094.41
2022-12-11T02:22:36.673Z,100094.00
2022-12-11T02:27:46.843Z,100114.78
2022-12-11T02:32:57.155Z,100100.97
2022-12-11T02:38:05.134Z,100105.78
2022-12-11T02:43:12.378Z,100110.66
2022-12-11T02:48:18.821Z,100104.38
2022-12-11T02:53:38.323Z,100094.63
2022-12-11T02:58:47.333Z,100101.91
2022-12-11T03:04:07.187Z,100097.47
2022-12-11T03:09:10.797Z,100112.66
2022-12-11T03:14:16.810Z,100108.34
2022-12-11T03:19:29.600Z,100094.31
2022-12-11T03:24:51.938Z,100100.78
2022-12-11T03:29:59.175Z,100104.59
2022-12-11T03:35:18.836Z,100098.19
2022-12-11T03:40:25.505Z,100104.94
2022-12-11T03:45:31.049Z,100094.28
2022-12-11T03:50:37.518Z,100094.28
2022-12-11T03:55:42.327Z,100096.84
2022-12-11T04:00:46.058Z,100102.81
2022-12-11T04:05:53.756Z,100094.72
2022-12-11T04:11:27.117Z,100094.09
2022-12-11T04:16:30.707Z,100118.00
2022-12-11T04:21:39.415Z,100118.53
2022-12-11T04:26:43.786Z,100114.03
2022-12-11T04:31:47.977Z,100110.50
2022-12-11T04:36:54.026Z,100124.19
2022-12-11T04:41:57.652Z,100131.16
2022-12-11T04:47:14.642Z,100122.16
2022-12-11T04:52:38.056Z,100138.25
2022-12-11T04:57:41.729Z,100141.78
2022-12-11T05:02:45.367Z,100136.25
2022-12-11T05:07:50.786Z,100143.19
2022-12-11T05:12:54.437Z,100139.38
2022-12-11T05:17:58.076Z,100160.00
2022-12-11T05:23:04.453Z,100168.63
2022-12-11T05:28:08.028Z,100152.56
2022-12-11T05:33:11.664Z,100147.44
2022-12-11T05:38:16.968Z,100133.84
2022-12-11T05:43:20.556Z,100120.03
2022-12-11T05:48:24.202Z,100119.91
2022-12-11T05:53:29.567Z,100137.84
2022-12-11T05:58:33.917Z,100143.06
2022-12-11T06:03:37.674Z,100150.84
2022-12-11T06:09:02.114Z,100161.06
2022-12-11T06:14:05.805Z,100153.19
2022-12-11T06:19:15.318Z,100144.97
2022-12-11T06:24:34.551Z,100152.66
2022-12-11T06:29:46.123Z,100137.91
2022-12-11T06:34:49.698Z,100142.22
2022-12-11T06:39:54.937Z,100141.81
2022-12-11T06:45:09.006Z,100144.28
2022-12-11T06:50:12.786Z,100130.53
2022-12-11T06:55:31.365Z,100133.34
2022-12-11T07:00:36.486Z,100142.59
2022-12-11T07:05:40.154Z,100132.06
2022-12-11T07:10:45.395Z,100134.81
2022-12-11T07:15:49.017Z,100136.31
2022-12-11T07:21:08.329Z,100116.38
2022-12-11T07:26:15.330Z,100083.22
2022-12-11T07:31:20.485Z,100086.97
2022-12-11T07:36:40.837Z,100110.91
2022-12-11T07:41:49.017Z,100127.84
2022-12-11T07:46:52.702Z,100157.19
2022-12-11T07:51:56.282Z,100145.25
2022-12-11T07:57:01.565Z,100154.09
2022-12-11T08:02:05.611Z,100145.50
2022-12-11T08:07:14.612Z,100136.38
2022-12-11T08:12:19.849Z,100129.34
2022-12-11T08:17:28.789Z,100125.78
2022-12-11T08:22:58.918Z,100108.16
2022-12-11T08:28:04.691Z,100109.94
2022-12-11T08:33:08.354Z,100124.63
2022-12-11T08:38:11.965Z,100123.66
2022-12-11T08:43:17.248Z,100106.88
2022-12-11T08:48:20.833Z,100084.09
2022-12-11T08:53:24.417Z,100076.09
2022-12-11T08:58:29.706Z,100098.38
2022-12-11T09:03:33.309Z,100108.06
2022-12-11T09:08:36.943Z,100109.09
2022-12-11T09:13:43.276Z,100105.19
2022-12-11T09:18:46.572Z,100109.84
2022-12-11T09:23:50.657Z,100102.19
2022-12-11T09:28:55.959Z,100092.69
2022-12-11T09:34:01.273Z,100112.16
2022-12-11T09:39:06.758Z,100117.28
2022-12-11T09:44:25.258Z,100124.75
2022-12-11T09:49:35.866Z,100125.31
2022-12-11T09:54:44.744Z,100123.59
2022-12-11T10:00:12.000Z,100132.19
2022-12-11T10:05:23.149Z,100150.13
2022-12-11T10:10:38.302Z,100154.50
2022-12-11T10:15:52.512Z,100157.22
2022-12-11T10:20:56.512Z,100170.06
2022-12-11T10:26:06.655Z,100183.84
2022-12-11T10:31:18.431Z,100196.22
2022-12-11T10:36:28.059Z,100191.00
2022-12-11T10:41:38.663Z,100187.50
2022-12-11T10:46:44.354Z,100185.81
2022-12-11T10:51:47.992Z,100184.16
2022-12-11T10:56:51.834Z,100178.28
2022-12-11T11:01:58.104Z,100189.44
2022-12-11T11:07:04.902Z,100189.25
2022-12-11T11:12:20.817Z,100180.59
2022-12-11T11:17:29.503Z,100188.47
2022-12-11T11:22:41.449Z,100186.06
2022-12-11T11:27:49.819Z,100197.41
2022-12-11T11:32:57.228Z,100198.19
2022-12-11T11:38:14.763Z,100205.16
2022-12-11T11:43:24.766Z,100198.13
2022-12-11T11:48:41.077Z,100195.44
2022-12-11T11:53:49.381Z,100205.06
2022-12-11T11:59:02.259Z,100206.97
2022-12-11T12:04:07.626Z,100225.41
2022-12-11T12:09:22.404Z,100236.78
2022-12-11T12:20:05.276Z,100203.91
2022-12-11T12:25:20.075Z,100199.59
2022-12-11T12:30:24.197Z,100214.28
2022-12-11T12:35:36.493Z,100228.00
2022-12-11T12:40:52.920Z,100237.72
2022-12-11T12:46:06.038Z,100247.53
2022-12-11T12:51:14.120Z,100256.88
2022-12-11T12:56:18.221Z,100265.78
2022-12-11T13:01:23.656Z,100259.53
2022-12-11T13:06:34.835Z,100269.75
2022-12-11T13:11:38.451Z,100279.16
2022-12-11T13:16:43.277Z,100287.06
2022-12-11T13:21:58.802Z,100301.00
2022-12-11T13:27:11.165Z,100319.16
2022-12-11T13:32:24.946Z,100329.59
2022-12-11T13:37:34.889Z,100338.41
2022-12-11T13:42:48.775Z,100343.75
2022-12-11T13:47:52.512Z,100355.00
2022-12-11T13:52:59.555Z,100346.44
2022-12-11T13:58:03.195Z,100358.53
2022-12-11T14:03:07.675Z,100371.47
2022-12-11T14:08:13.200Z,100375.91
2022-12-11T14:13:22.789Z,100384.69
2022-12-11T14:18:29.962Z,100398.56
2022-12-11T14:23:36.118Z,100414.31
2022-12-11T14:28:43.392Z,100426.34
2022-12-11T14:33:52.537Z,100439.41
2022-12-11T14:39:01.743Z,100447.94
2022-12-11T14:44:08.392Z,100457.47
2022-12-11T14:49:22.350Z,100473.94
2022-12-11T14:54:32.550Z,100480.00
2022-12-11T14:59:39.954Z,100500.00
2022-12-11T15:04:43.615Z,100489.66
2022-12-11T15:09:52.652Z,100506.13
2022-12-11T15:14:58.441Z,100505.34
2022-12-11T15:20:07.004Z,100508.94
2022-12-11T15:25:21.658Z,100496.91
2022-12-11T15:30:31.191Z,100497.72
2022-12-11T15:35:34.847Z,100498.78
2022-12-11T15:40:40.408Z,100500.47
2022-12-11T15:45:44.071Z,100511.84
2022-12-11T15:50:47.878Z,100503.25
2022-12-11T15:55:53.642Z,100517.22
2022-12-11T16:00:57.238Z,100530.16
2022-12-11T16:06:00.835Z,100544.66
2022-12-11T16:11:06.296Z,100555.69
2022-12-11T16:16:09.998Z,100575.38
2022-12-11T16:21:16.871Z,100589.97
2022-12-11T16:26:27.405Z,100589.47
2022-12-11T16:31:31.042Z,100601.00
2022-12-11T16:36:34.673Z,100601.13
2022-12-11T16:41:40.101Z,100603.56
2022-12-11T16:46:43.779Z,100613.44
2022-12-11T16:51:47.531Z,100603.06
2022-12-11T16:56:52.793Z,100610.34
2022-12-11T17:01:56.455Z,100610.63
2022-12-11T17:07:00.780Z,100632.72
2022-12-11T17:12:06.826Z,100628.41
2022-12-11T17:17:10.564Z,100626.25
2022-12-11T17:22:14.182Z,100634.03
2022-12-11T17:27:19.512Z,100633.13
2022-12-11T17:32:23.130Z,100655.16
2022-12-11T17:37:26.758Z,100663.44
2022-12-11T17:42:32.194Z,100672.50
2022-12-11T17:47:35.827Z,100684.97
2022-12-11T17:52:43.981Z,100697.59
2022-12-11T17:57:49.665Z,100699.78
2022-12-11T18:02:53.640Z,100704.84
2022-12-11T18:07:58.142Z,100718.50
2022-12-11T18:13:03.672Z,100710.28
2022-12-11T18:18:08.029Z,100714.81
2022-12-11T18:23:11.623Z,100713.69
2022-12-11T18:28:16.935Z,100715.22
2022-12-11T18:33:20.552Z,100711.81
2022-12-11T18:38:24.218Z,100713.44
2022-12-11T18:43:29.480Z,100717.50
2022-12-11T18:48:33.152Z,100706.66
2022-12-11T18:53:37.532Z,100704.44
2022-12-11T18:58:43.731Z,100686.19
2022-12-11T19:03:47.521Z,100688.44
2022-12-11T19:08:51.456Z,100694.16
2022-12-11T19:13:57.551Z,100695.16
2022-12-11T19:19:02.547Z,100688.88
2022-12-11T19:24:08.179Z,100685.50
2022-12-11T19:29:19.870Z,100679.13
2022-12-11T19:34:24.105Z,100682.16
2022-12-11T19:39:27.756Z,100671.72
2022-12-11T19:44:33.072Z,100672.34
2022-12-11T19:49:36.684Z,100657.69
2022-12-11T19:54:40.279Z,100638.50
2022-12-11T19:59:45.505Z,100645.47
2022-12-11T20:04:49.119Z,100647.22
2022-12-11T20:09:52.741Z,100646.06
2022-12-11T20:14:58.997Z,100636.28
2022-12-11T20:20:01.928Z,100643.88
2022-12-11T20:25:06.033Z,100648.72
2022-12-11T20:30:14.241Z,100624.97
2022-12-11T20:35:18.605Z,100619.72
2022-12-11T20:40:22.291Z,100610.03
2022-12-11T20:45:27.700Z,100609.91
2022-12-11T20:50:31.384Z,100598.22
2022-12-11T20:55:35.013Z,100585.47
2022-12-11T21:00:40.969Z,100579.94
2022-12-11T21:05:46.623Z,100587.72
2022-12-11T21:10:50.223Z,100572.78
2022-12-11T21:15:55.523Z,100568.53
2022-12-11T21:20:59.891Z,100561.03
2022-12-11T21:26:03.633Z,100556.56
2022-12-11T21:31:13.805Z,100559.94
2022-12-11T21:36:18.391Z,100553.53
2022-12-11T21:41:23.732Z,100557.94
2022-12-11T21:46:29.482Z,100548.47
2022-12-11T21:51:39.377Z,100551.38
2022-12-11T21:56:45.197Z,100550.44
2022-12-11T22:01:50.561Z,100544.88
2022-12-11T22:06:54.576Z,100532.09
2022-12-11T22:11:59.015Z,100528.56
2022-12-11T22:17:05.050Z,100513.84
2022-12-11T22:22:08.690Z,100513.72
2022-12-11T22:27:12.324Z,100522.25
2022-12-11T22:32:17.607Z,100525.94
2022-12-11T22:37:21.194Z,100529.28
2022-12-11T22:42:24.828Z,100551.66
2022-12-11T22:47:30.090Z,100562.25
2022-12-11T22:52:33.846Z,100538.69
2022-12-11T22:57:38.261Z,100538.38
2022-12-11T23:02:43.647Z,100522.94
2022-12-11T23:07:47.440Z,100523.72
2022-12-11T23:12:51.467Z,100531.06
2022-12-11T23:17:56.767Z,100534.31
2022-12-11T23:23:00.447Z,100526.72
2022-12-11T23:28:04.144Z,100523.31
2022-12-11T23:33:09.441Z,100521.59
2022-12-11T23:38:13.088Z,100524.69
2022-12-11T23:43:16.736Z,100516.00
2022-12-11T23:48:22.175Z,100510.19
2022-12-11T23:53:25.778Z,100492.56
2022-12-11T23:58:29.393Z,100488.41
